Flight Track Log - Related Links

Times and Time Zones

All times are in EDT time to prevent confusion due to time zone crossing. See the DAL268 flight status page for this flight to view local times or setup timezone preferences in your user account.

Time Position Orientation Groundspeed Altitude Reporting Facility
EDT Latitude Longitude Course Direction KTS MPH feet Rate Location/Type
Mon 09:21:05 PM 40.6340 -73.7770 180° South  Level FlightAware ADS-B
Mon 09:28:00 PM 40.5067 -73.5567 143° Southeast  Level FlightAware Approximate
Mon 09:29:00 PM 40.4308 -73.4123 128° Southeast  Level FlightAware Approximate
Mon 09:37:00 PM 40.4769 -73.4892 128° Southeast  Level FlightAware Approximate
Mon 09:39:00 PM 40.4812 -73.4964 128° Southeast  Level FlightAware Approximate
Mon 09:41:00 PM 40.5000 -73.5488 90° East  Level FlightAware Approximate
Mon 09:41:30 PM 40.6430 -73.8080 90° East 96 110  Level FlightAware ADS-B
Mon 09:41:51 PM 40.6370 -73.7940 119° Southeast 155 178 545 Level FlightAware ADS-B
Mon 09:42:14 PM 40.6270 -73.7720 121° Southeast 176 203 400 1,161 Climbing FlightAware ADS-B
Mon 09:42:22 PM 40.6230 -73.7650 127° Southeast 173 199 600 1,125 Climbing FlightAware ADS-B
Mon 09:42:30 PM 40.6190 -73.7610 143° Southeast 172 198 700 1,400 Climbing FlightAware ADS-B
Mon 09:42:52 PM 40.6020 -73.7500 154° Southeast 180 207 1,300 1,143 Climbing FlightAware ADS-B
Mon 09:43:12 PM 40.5860 -73.7400 155° Southeast 202 232 1,500 900 Climbing FlightAware ADS-B
Mon 09:43:32 PM 40.5700 -73.7240 143° Southeast 226 260 1,900 1,125 Climbing FlightAware ADS-B
Mon 09:43:44 PM 40.5620 -73.7100 127° Southeast 242 278 2,100 1,071 Climbing FlightAware ADS-B
Mon 09:44:00 PM 40.5520 -73.6910 125° Southeast 256 295 2,400 1,167 Climbing FlightAware ADS-B
Mon 09:44:20 PM 40.5410 -73.6660 120° Southeast 273 314 2,800 1,667 Climbing FlightAware ADS-B
Mon 09:44:36 PM 40.5290 -73.6410 122° Southeast 282 325 3,400 2,667 Climbing FlightAware ADS-B
Mon 09:44:56 PM 40.5140 -73.6100 122° Southeast 287 330 4,400 2,923 Climbing FlightAware ADS-B
Mon 09:45:15 PM 40.5000 -73.5810 122° Southeast 288 331 5,300 2,550 Climbing FlightAware ADS-B
Mon 09:45:36 PM 40.4850 -73.5510 123° Southeast 294 338 6,100 2,400 Climbing FlightAware ADS-B
Mon 09:45:50 PM 40.4730 -73.5300 127° Southeast 298 343 6,700 2,167 Climbing FlightAware ADS-B
Mon 09:46:12 PM 40.4560 -73.4980 125° Southeast 308 354 7,400 2,341 Climbing FlightAware ADS-B
Mon 09:46:31 PM 40.4410 -73.4690 124° Southeast 308 354 8,300 2,571 Climbing FlightAware ADS-B
Mon 09:46:54 PM 40.4210 -73.4340 127° Southeast 313 360 9,200 2,133 Climbing FlightAware ADS-B
Mon 09:47:16 PM 40.4030 -73.4000 125° Southeast 322 371 9,900 1,627 Climbing FlightAware ADS-B
Mon 09:47:53 PM 40.3720 -73.3360 122° Southeast 350 403 10,800 1,235 Climbing FlightAware ADS-B
Mon 09:48:24 PM 40.3410 -73.2770 125° Southeast 380 437 11,300 1,043 Climbing FlightAware ADS-B
Mon 09:49:02 PM 40.3010 -73.2050 126° Southeast 408 470 12,000 1,371 Climbing FlightAware ADS-B
Mon 09:49:34 PM 40.2610 -73.1380 128° Southeast 425 489 12,900 1,881 Climbing FlightAware ADS-B
Mon 09:50:09 PM 40.2210 -73.0690 127° Southeast 433 498 14,100 1,948 Climbing FlightAware ADS-B
Mon 09:50:51 PM 40.1710 -72.9820 127° Southeast 447 514 15,400 1,944 Climbing FlightAware ADS-B
Mon 09:51:20 PM 40.1389 -72.9278 128° Southeast 457 526 16,400 1,852 Climbing FlightAware ADS-B (KSNC)
Mon 09:52:12 PM 40.0640 -72.8010 128° Southeast 468 539 17,900 1,630 Climbing FlightAware ADS-B
Mon 09:52:52 PM 40.0130 -72.7160 128° Southeast 478 550 18,900 1,667 Climbing FlightAware ADS-B
Mon 09:53:24 PM 39.9650 -72.6360 128° Southeast 484 557 19,900 1,636 Climbing FlightAware ADS-B
Mon 09:53:58 PM 39.9200 -72.5590 127° Southeast 491 565 20,700 1,606 Climbing FlightAware ADS-B
Mon 09:54:35 PM 39.8670 -72.4700 128° Southeast 496 571 21,800 1,655 Climbing FlightAware ADS-B
Mon 09:54:56 PM 39.8370 -72.4165 126° Southeast 507 583 22,300 684 Climbing FlightAware ADS-B (KSNC)
Mon 09:55:54 PM 39.7880 -72.2870 116° Southeast 509 586 22,700 1,300 Climbing FlightAware ADS-B
Mon 09:55:56 PM 39.8220 -72.3750 297° West 531 611 23,600 1,650 Climbing FlightAware ADS-B
Mon 09:56:34 PM 39.8060 -72.1490 95° East 531 611 23,800 1,167 Climbing FlightAware ADS-B
Mon 09:57:08 PM 39.8230 -72.0110 81° East 551 634 25,000 1,000 Climbing FlightAware ADS-B
Mon 09:57:46 PM 39.8330 -71.9040 83° East 551 634 25,000  Level FlightAware ADS-B
Mon 09:58:23 PM 39.8430 -71.8010 83° East 551 634 25,000  Level FlightAware ADS-B
Mon 09:58:59 PM 39.8520 -71.7000 83° East 551 634 25,000  Level FlightAware ADS-B
Mon 09:59:35 PM 39.8620 -71.5990 83° East 551 634 25,000  Level FlightAware ADS-B
Mon 10:00:21 PM 39.8740 -71.4700 83° East 551 634 25,000  Level FlightAware ADS-B
Mon 10:00:58 PM 39.8840 -71.3660 83° East 551 634 25,000 3,099 Level FlightAware ADS-B
Mon 10:01:52 PM 39.8994 -71.0308 83° East 592 681 29,700 3,053 Climbing New York Center
Mon 10:02:52 PM 39.9144 -70.8172 85° East 592 681 30,800 843 Climbing New York Center
Mon 10:03:53 PM 39.9311 -70.6006 84° East 592 681 31,400 600 Climbing New York Center
Mon 10:04:52 PM 39.9411 -70.3867 86° East 592 681 32,000 555 Climbing New York Center
Mon 10:05:52 PM 39.9592 -70.1728 84° East 587 676 32,500 500 Climbing New York Center
Mon 10:06:52 PM 39.9744 -69.9478 85° East 604 695 33,000 250 Climbing New York Center
Mon 10:07:52 PM 39.9856 -69.7336 86° East 610 702 33,000  Level New York Center
Mon 10:08:52 PM 40.0000 -69.5031 85° East 616 709 33,000  Level New York Center
Mon 10:09:52 PM 40.0081 -69.2836 87° East 616 709 33,000  Level New York Center
Mon 10:10:52 PM 40.0217 -69.0611 85° East 611 703 33,000  Level New York Center
Mon 10:11:52 PM 40.0331 -68.8386 86° East 604 695 33,000  Level New York Center
Mon 10:12:52 PM 40.0439 -68.6186 86° East 611 703 33,000  Level New York Center
Mon 10:13:52 PM 40.0564 -68.3933 86° East 616 709 33,000  Level New York Center
Mon 10:14:52 PM 40.0667 -68.1758 86° East 616 709 33,000  Level New York Center
Mon 10:15:52 PM 40.0764 -67.9558 87° East 609 701 33,000  Level New York Center
Mon 10:16:52 PM 40.0878 -67.7356 86° East 609 701 33,000  Level New York Center
Mon 10:17:52 PM 40.0969 -67.5344 87° East 614 707 33,000  Level New York Center
Mon 10:18:52 PM 40.1036 -67.3169 88° East 609 701 33,000  Level New York Center
Mon 10:19:52 PM 40.1136 -67.0914 87° East 609 701 33,000  Level New York Center
Mon 10:21:00 PM 40.1513 -66.8776 67° East  Level FlightAware Approximate
Mon 10:22:04 PM 40.1167 -67.0000 78° East 608 700 33,000  Level New York Oceanic (ODAPS)
Mon 10:28:00 PM 40.3769 -65.2679 79° East 608 700 33,000  Level FlightAware Transoceanic
Mon 10:29:00 PM 40.4076 -65.0505 80° East 608 700 33,000  Level FlightAware Transoceanic
Mon 10:30:00 PM 40.4380 -64.8329 80° East 608 700 33,000  Level FlightAware Transoceanic
Mon 10:31:00 PM 40.4678 -64.6151 80° East 608 700 33,000  Level FlightAware Transoceanic
Mon 10:32:00 PM 40.4973 -64.3970 80° East 608 700 33,000  Level FlightAware Transoceanic
Mon 10:33:00 PM 40.5264 -64.1788 80° East 608 700 33,000  Level FlightAware Transoceanic
Mon 10:34:00 PM 40.5551 -63.9605 80° East 608 700 33,000  Level FlightAware Transoceanic
Mon 10:35:00 PM 40.5833 -63.7419 80° East 608 700 33,000  Level FlightAware Transoceanic
Mon 10:36:00 PM 40.6112 -63.5231 81° East 608 700 33,000  Level FlightAware Transoceanic
Mon 10:37:00 PM 40.6386 -63.3042 81° East 608 700 33,000  Level FlightAware Transoceanic
Mon 10:38:00 PM 40.6656 -63.0851 81° East 608 700 33,000  Level FlightAware Transoceanic
Mon 10:39:00 PM 40.6922 -62.8658 81° East 608 700 33,000  Level FlightAware Transoceanic
Mon 10:40:00 PM 40.7184 -62.6463 81° East 608 700 33,000  Level FlightAware Transoceanic
Mon 10:41:00 PM 40.7442 -62.4267 81° East 608 700 33,000  Level FlightAware Transoceanic
Mon 10:42:00 PM 40.7695 -62.2068 81° East 608 700 33,000  Level FlightAware Transoceanic
Mon 10:43:00 PM 40.7945 -61.9869 82° East 608 700 33,000  Level FlightAware Transoceanic
Mon 10:44:00 PM 40.8190 -61.7667 82° East 608 700 33,000  Level FlightAware Transoceanic
Mon 10:45:00 PM 40.8431 -61.5464 82° East 608 700 33,000  Level FlightAware Transoceanic
Mon 10:46:00 PM 40.8668 -61.3260 82° East 608 700 33,000  Level FlightAware Transoceanic
Mon 10:47:00 PM 40.8900 -61.1053 82° East 608 700 33,000  Level FlightAware Transoceanic
Mon 10:48:00 PM 40.9129 -60.8846 82° East 608 700 33,000  Level FlightAware Transoceanic
Mon 10:49:00 PM 40.9353 -60.6637 82° East 608 700 33,000  Level FlightAware Transoceanic
Mon 10:50:00 PM 40.9573 -60.4426 83° East 608 700 33,000  Level FlightAware Transoceanic
Mon 10:51:00 PM 40.9789 -60.2214 83° East 608 700 33,000  Level FlightAware Transoceanic
Mon 10:52:00 PM 41.0000 -60.0000 87° East 608 700 33,000  Level FlightAware Transoceanic
Mon 10:53:00 PM 41.0092 -59.7831 87° East 608 700 33,000  Level FlightAware Transoceanic
Mon 10:54:00 PM 41.0180 -59.5661 87° East 608 700 33,000  Level FlightAware Transoceanic
Mon 10:55:00 PM 41.0264 -59.3490 87° East 608 700 33,000  Level FlightAware Transoceanic
Mon 10:55:58 PM 41.0000 -60.0000 87° East 592 681 33,000  Level New York Oceanic (ODAPS)
Mon 10:56:00 PM 41.0343 -59.1319 87° East 608 700 33,000  Level FlightAware Transoceanic
Mon 10:57:00 PM 41.0419 -58.9147 87° East 608 700 33,000  Level FlightAware Transoceanic
Mon 10:58:00 PM 41.0490 -58.6975 88° East 608 700 33,000  Level FlightAware Transoceanic
Mon 10:59:00 PM 41.0558 -58.4802 88° East 608 700 33,000  Level FlightAware Transoceanic
Mon 11:00:00 PM 41.0621 -58.2629 88° East 608 700 33,000  Level FlightAware Transoceanic
Mon 11:01:00 PM 41.0681 -58.0456 88° East 608 700 33,000  Level FlightAware Transoceanic
Mon 11:02:00 PM 41.0736 -57.8282 88° East 592 681 33,000  Level FlightAware Transoceanic
Mon 11:03:00 PM 41.0787 -57.6108 88° East 592 681 33,000  Level FlightAware Transoceanic
Mon 11:04:00 PM 41.0834 -57.3933 88° East 592 681 33,000  Level FlightAware Transoceanic
Mon 11:05:00 PM 41.0877 -57.1758 89° East 592 681 33,000  Level FlightAware Transoceanic
Mon 11:06:00 PM 41.0916 -56.9583 89° East 592 681 33,000  Level FlightAware Transoceanic
Mon 11:07:00 PM 41.0951 -56.7408 89° East 592 681 33,000  Level FlightAware Transoceanic
Mon 11:08:00 PM 41.0982 -56.5233 89° East 592 681 33,000  Level FlightAware Transoceanic
Mon 11:09:00 PM 41.1008 -56.3057 89° East 592 681 33,000  Level FlightAware Transoceanic
Mon 11:10:00 PM 41.1031 -56.0881 89° East 592 681 33,000  Level FlightAware Transoceanic
Mon 11:11:00 PM 41.1049 -55.8705 89° East 592 681 33,000  Level FlightAware Transoceanic
Mon 11:12:00 PM 41.1063 -55.6529 90° East 592 681 33,000  Level FlightAware Transoceanic
Mon 11:13:00 PM 41.1074 -55.4353 90° East 592 681 33,000  Level FlightAware Transoceanic
Mon 11:14:00 PM 41.1080 -55.2176 90° East 592 681 33,000  Level FlightAware Transoceanic
Mon 11:15:00 PM 41.1082 -55.0000 90° East 592 681 33,000  Level FlightAware Transoceanic
Mon 11:16:00 PM 41.1080 -54.7824 90° East 592 681 33,000  Level FlightAware Transoceanic
Mon 11:17:00 PM 41.1074 -54.5647 90° East 592 681 33,000  Level FlightAware Transoceanic
Mon 11:18:00 PM 41.1063 -54.3471 90° East 592 681 33,000  Level FlightAware Transoceanic
Mon 11:19:00 PM 41.1049 -54.1295 91° East 592 681 33,000  Level FlightAware Transoceanic
Mon 11:20:00 PM 41.1031 -53.9119 91° East 592 681 33,000  Level FlightAware Transoceanic
Mon 11:21:00 PM 41.1008 -53.6943 91° East 592 681 33,000  Level FlightAware Transoceanic
Mon 11:22:00 PM 41.0982 -53.4767 91° East 592 681 33,000  Level FlightAware Transoceanic
Mon 11:23:00 PM 41.0951 -53.2592 91° East 592 681 33,000  Level FlightAware Transoceanic
Mon 11:24:00 PM 41.0916 -53.0417 91° East 592 681 33,000  Level FlightAware Transoceanic
Mon 11:25:00 PM 41.0877 -52.8242 91° East 592 681 33,000  Level FlightAware Transoceanic
Mon 11:26:00 PM 41.0834 -52.6067 92° East 592 681 33,000  Level FlightAware Transoceanic
Mon 11:27:00 PM 41.0787 -52.3892 92° East 592 681 33,000  Level FlightAware Transoceanic
Mon 11:28:00 PM 41.0736 -52.1718 92° East 592 681 33,000  Level FlightAware Transoceanic
Mon 11:29:00 PM 41.0681 -51.9544 92° East 592 681 33,000  Level FlightAware Transoceanic
Mon 11:30:00 PM 41.0621 -51.7371 92° East 592 681 33,000  Level FlightAware Transoceanic
Mon 11:31:00 PM 41.0558 -51.5198 92° East 592 681 33,000  Level FlightAware Transoceanic
Mon 11:32:00 PM 41.0490 -51.3025 92° East 592 681 33,000  Level FlightAware Transoceanic
Mon 11:33:00 PM 41.0419 -51.0853 93° East 592 681 33,000  Level FlightAware Transoceanic
Mon 11:34:00 PM 41.0343 -50.8681 93° East 592 681 33,000  Level FlightAware Transoceanic
Mon 11:35:00 PM 41.0264 -50.6510 93° East 592 681 33,000  Level FlightAware Transoceanic
Mon 11:36:00 PM 41.0180 -50.4339 93° East 592 681 33,000  Level FlightAware Transoceanic
Mon 11:37:00 PM 41.0092 -50.2169 93° East 592 681 33,000  Level FlightAware Transoceanic
Mon 11:38:00 PM 41.0000 -50.0000 72° East 592 681 33,000  Level FlightAware Transoceanic
Mon 11:39:00 PM 41.0514 -49.7941 72° East 592 681 33,000  Level FlightAware Transoceanic
Mon 11:40:00 PM 41.1024 -49.5878 72° East 592 681 33,000  Level FlightAware Transoceanic
Mon 11:41:00 PM 41.1531 -49.3813 72° East 592 681 33,000  Level FlightAware Transoceanic
Mon 11:42:00 PM 41.2034 -49.1744 72° East 592 681 33,000  Level FlightAware Transoceanic
Mon 11:42:53 PM 41.0000 -50.0000 72° East 591 680 33,000  Level New York Oceanic (ODAPS)
Mon 11:43:00 PM 41.2533 -48.9672 72° East 592 681 33,000  Level FlightAware Transoceanic
Mon 11:44:00 PM 41.3029 -48.7597 72° East 592 681 33,000  Level FlightAware Transoceanic
Mon 11:45:00 PM 41.3521 -48.5519 73° East 592 681 33,000  Level FlightAware Transoceanic
Mon 11:46:00 PM 41.4009 -48.3438 73° East 592 681 33,000  Level FlightAware Transoceanic
Mon 11:47:00 PM 41.4493 -48.1353 73° East 592 681 33,000  Level FlightAware Transoceanic
Mon 11:48:00 PM 41.4974 -47.9266 73° East 592 681 33,000  Level FlightAware Transoceanic
Mon 11:49:00 PM 41.4974 -47.9266 73° East 591 680 33,000  Level FlightAware Transoceanic
Mon 11:50:00 PM 41.5450 -47.7175 73° East 591 680 33,000  Level FlightAware Transoceanic
Mon 11:51:00 PM 41.5923 -47.5081 73° East 591 680 33,000  Level FlightAware Transoceanic
Mon 11:52:00 PM 41.6393 -47.2985 73° East 591 680 33,000  Level FlightAware Transoceanic
Mon 11:53:00 PM 41.6858 -47.0885 74° East 591 680 33,000  Level FlightAware Transoceanic
Mon 11:54:00 PM 41.7319 -46.8782 74° East 591 680 33,000  Level FlightAware Transoceanic
Mon 11:55:00 PM 41.7777 -46.6676 74° East 591 680 33,000  Level FlightAware Transoceanic
Mon 11:56:00 PM 41.8231 -46.4567 74° East 591 680 33,000  Level FlightAware Transoceanic
Mon 11:57:00 PM 41.8681 -46.2455 74° East 591 680 33,000  Level FlightAware Transoceanic
Mon 11:58:00 PM 41.9127 -46.0341 74° East 591 680 33,000  Level FlightAware Transoceanic
Mon 11:59:00 PM 41.9569 -45.8223 74° East 591 680 33,000  Level FlightAware Transoceanic
Tue 12:00:00 AM 42.0008 -45.6102 75° East 591 680 33,000  Level FlightAware Transoceanic
Tue 12:01:00 AM 42.0442 -45.3979 75° East 591 680 33,000  Level FlightAware Transoceanic
Tue 12:02:00 AM 42.0872 -45.1852 75° East 591 680 33,000  Level FlightAware Transoceanic
Tue 12:03:00 AM 42.1299 -44.9723 75° East 591 680 33,000  Level FlightAware Transoceanic
Tue 12:04:00 AM 42.1722 -44.7591 75° East 591 680 33,000  Level FlightAware Transoceanic
Tue 12:05:00 AM 42.2140 -44.5456 75° East 591 680 33,000  Level FlightAware Transoceanic
Tue 12:06:00 AM 42.2555 -44.3318 75° East 591 680 33,000  Level FlightAware Transoceanic
Tue 12:07:00 AM 42.2966 -44.1177 76° East 591 680 33,000  Level FlightAware Transoceanic
Tue 12:08:00 AM 42.3372 -43.9034 76° East 591 680 33,000  Level FlightAware Transoceanic
Tue 12:09:00 AM 42.3775 -43.6887 76° East 591 680 33,000  Level FlightAware Transoceanic
Tue 12:10:00 AM 42.4174 -43.4739 76° East 591 680 33,000  Level FlightAware Transoceanic
Tue 12:11:00 AM 42.4569 -43.2587 76° East 591 680 33,000  Level FlightAware Transoceanic
Tue 12:12:00 AM 42.4959 -43.0433 76° East 591 680 33,000  Level FlightAware Transoceanic
Tue 12:13:00 AM 42.5346 -42.8275 76° East 591 680 33,000  Level FlightAware Transoceanic
Tue 12:14:00 AM 42.5728 -42.6116 77° East 591 680 33,000  Level FlightAware Transoceanic
Tue 12:15:00 AM 42.6107 -42.3953 77° East 591 680 33,000  Level FlightAware Transoceanic
Tue 12:16:00 AM 42.6482 -42.1788 77° East 591 680 33,000  Level FlightAware Transoceanic
Tue 12:17:00 AM 42.6852 -41.9621 77° East 591 680 33,000  Level FlightAware Transoceanic
Tue 12:18:00 AM 42.7218 -41.7451 77° East 591 680 33,000  Level FlightAware Transoceanic
Tue 12:19:00 AM 42.7580 -41.5278 77° East 591 680 33,000  Level FlightAware Transoceanic
Tue 12:20:00 AM 42.7938 -41.3103 77° East 591 680 33,000  Level FlightAware Transoceanic
Tue 12:21:00 AM 42.8292 -41.0925 78° East 591 680 33,000  Level FlightAware Transoceanic
Tue 12:22:00 AM 42.8642 -40.8745 78° East 591 680 33,000  Level FlightAware Transoceanic
Tue 12:23:00 AM 42.8988 -40.6562 78° East 591 680 33,000  Level FlightAware Transoceanic
Tue 12:24:00 AM 42.9329 -40.4377 78° East 591 680 33,000  Level FlightAware Transoceanic
Tue 12:25:00 AM 42.9667 -40.2190 78° East 591 680 33,000  Level FlightAware Transoceanic
Tue 12:26:00 AM 43.0000 -40.0000 79° East 591 680 33,000  Level FlightAware Transoceanic
Tue 12:27:00 AM 43.0309 -39.7866 79° East 591 680 33,000  Level FlightAware Transoceanic
Tue 12:28:00 AM 43.0614 -39.5729 79° East 591 680 33,000  Level FlightAware Transoceanic
Tue 12:29:00 AM 43.0915 -39.3591 79° East 591 680 33,000  Level FlightAware Transoceanic
Tue 12:29:00 AM 43.0000 -40.0000 79° East 572 658 33,000  Level ETMS Enhanced Traffic Management System
Tue 12:30:00 AM 43.1213 -39.1450 79° East 591 680 33,000  Level FlightAware Transoceanic
Tue 12:31:00 AM 43.1506 -38.9308 79° East 591 680 33,000  Level FlightAware Transoceanic
Tue 12:32:00 AM 43.1795 -38.7163 80° East 591 680 33,000  Level FlightAware Transoceanic
Tue 12:33:00 AM 43.2080 -38.5016 80° East 591 680 33,000  Level FlightAware Transoceanic
Tue 12:34:00 AM 43.2361 -38.2868 80° East 591 680 33,000  Level FlightAware Transoceanic
Tue 12:35:00 AM 43.2911 -37.8564 80° East 572 658 33,000  Level FlightAware Transoceanic
Tue 12:36:00 AM 43.3180 -37.6410 80° East 572 658 33,000  Level FlightAware Transoceanic
Tue 12:37:00 AM 43.3445 -37.4253 80° East 572 658 33,000  Level FlightAware Transoceanic
Tue 12:38:00 AM 43.3706 -37.2095 81° East 572 658 33,000  Level FlightAware Transoceanic
Tue 12:39:00 AM 43.3963 -36.9935 81° East 572 658 33,000  Level FlightAware Transoceanic
Tue 12:40:00 AM 43.4216 -36.7773 81° East 572 658 33,000  Level FlightAware Transoceanic
Tue 12:41:00 AM 43.4464 -36.5609 81° East 572 658 33,000  Level FlightAware Transoceanic
Tue 12:42:00 AM 43.4709 -36.3444 81° East 572 658 33,000  Level FlightAware Transoceanic
Tue 12:43:00 AM 43.4950 -36.1277 81° East 572 658 33,000  Level FlightAware Transoceanic
Tue 12:44:00 AM 43.5186 -35.9108 82° East 572 658 33,000  Level FlightAware Transoceanic
Tue 12:45:00 AM 43.5418 -35.6937 82° East 572 658 33,000  Level FlightAware Transoceanic
Tue 12:46:00 AM 43.5647 -35.4765 82° East 572 658 33,000  Level FlightAware Transoceanic
Tue 12:47:00 AM 43.5871 -35.2591 82° East 572 658 33,000  Level FlightAware Transoceanic
Tue 12:48:00 AM 43.6091 -35.0415 82° East 572 658 33,000  Level FlightAware Transoceanic
Tue 12:49:00 AM 43.6307 -34.8238 82° East 572 658 33,000  Level FlightAware Transoceanic
Tue 12:50:00 AM 43.6518 -34.6059 82° East 572 658 33,000  Level FlightAware Transoceanic
Tue 12:51:00 AM 43.6726 -34.3879 83° East 572 658 33,000  Level FlightAware Transoceanic
Tue 12:52:00 AM 43.6929 -34.1698 83° East 572 658 33,000  Level FlightAware Transoceanic
Tue 12:53:00 AM 43.7129 -33.9514 83° East 572 658 33,000  Level FlightAware Transoceanic
Tue 12:54:00 AM 43.7324 -33.7330 83° East 572 658 33,000  Level FlightAware Transoceanic
Tue 12:55:00 AM 43.7515 -33.5144 83° East 572 658 33,000  Level FlightAware Transoceanic
Tue 12:56:00 AM 43.7702 -33.2956 83° East 572 658 33,000  Level FlightAware Transoceanic
Tue 12:57:00 AM 43.7884 -33.0768 83° East 572 658 33,000  Level FlightAware Transoceanic
Tue 12:58:00 AM 43.8063 -32.8578 84° East 572 658 33,000  Level FlightAware Transoceanic
Tue 12:59:00 AM 43.8237 -32.6386 84° East 572 658 33,000  Level FlightAware Transoceanic
Tue 01:00:00 AM 43.8407 -32.4194 84° East 572 658 33,000  Level FlightAware Transoceanic
Tue 01:01:00 AM 43.8573 -32.2000 84° East 572 658 33,000  Level FlightAware Transoceanic
Tue 01:02:00 AM 43.8735 -31.9805 84° East 572 658 33,000  Level FlightAware Transoceanic
Tue 01:03:00 AM 43.8892 -31.7609 84° East 572 658 33,000  Level FlightAware Transoceanic
Tue 01:04:00 AM 43.9045 -31.5411 85° East 572 658 33,000  Level FlightAware Transoceanic
Tue 01:05:00 AM 43.9194 -31.3213 85° East 572 658 33,000  Level FlightAware Transoceanic
Tue 01:06:00 AM 43.9339 -31.1013 85° East 572 658 33,000  Level FlightAware Transoceanic
Tue 01:07:00 AM 43.9480 -30.8813 85° East 572 658 33,000  Level FlightAware Transoceanic
Tue 01:08:00 AM 43.9616 -30.6611 85° East 572 658 33,000  Level FlightAware Transoceanic
Tue 01:09:00 AM 43.9748 -30.4408 85° East 572 658 33,000  Level FlightAware Transoceanic
Tue 01:10:00 AM 43.9876 -30.2204 85° East 572 658 33,000  Level FlightAware Transoceanic
Tue 01:11:00 AM 44.0000 -30.0000 87° East 572 658 33,000 35 Level FlightAware Transoceanic
Tue 01:12:00 AM 44.0246 -29.7984 80° East  Level Estimated
Tue 01:13:00 AM 44.0488 -29.5967 80° East  Level Estimated
Tue 01:14:00 AM 44.0727 -29.3948 81° East  Level Estimated
Tue 01:15:00 AM 44.0962 -29.1927 81° East  Level Estimated
Tue 01:16:00 AM 44.1194 -28.9905 81° East  Level Estimated
Tue 01:17:00 AM 44.1422 -28.7881 81° East  Level Estimated
Tue 01:18:00 AM 44.1647 -28.5856 81° East  Level Estimated
Tue 01:19:00 AM 44.1868 -28.3829 81° East  Level Estimated
Tue 01:20:00 AM 44.2085 -28.1801 81° East  Level Estimated
Tue 01:21:00 AM 44.2299 -27.9771 82° East  Level Estimated
Tue 01:22:00 AM 44.2509 -27.7740 82° East  Level Estimated
Tue 01:23:00 AM 44.2716 -27.5707 82° East  Level Estimated
Tue 01:24:00 AM 44.2919 -27.3673 82° East  Level Estimated
Tue 01:25:00 AM 44.3118 -27.1637 82° East  Level Estimated
Tue 01:26:00 AM 44.3314 -26.9600 82° East  Level Estimated
Tue 01:27:00 AM 44.3506 -26.7562 82° East  Level Estimated
Tue 01:28:00 AM 44.3695 -26.5522 83° East  Level Estimated
Tue 01:29:00 AM 44.3880 -26.3482 83° East  Level Estimated
Tue 01:30:00 AM 44.4061 -26.1439 83° East  Level Estimated
Tue 01:31:00 AM 44.4238 -25.9396 83° East  Level Estimated
Tue 01:32:00 AM 44.4412 -25.7351 83° East  Level Estimated
Tue 01:33:00 AM 44.4583 -25.5305 83° East  Level Estimated
Tue 01:34:00 AM 44.4749 -25.3258 83° East  Level Estimated
Tue 01:35:00 AM 44.4912 -25.1210 84° East  Level Estimated
Tue 01:36:00 AM 44.5072 -24.9161 84° East  Level Estimated
Tue 01:37:00 AM 44.5227 -24.7111 84° East  Level Estimated
Tue 01:38:00 AM 44.5379 -24.5059 84° East  Level Estimated
Tue 01:39:00 AM 44.5528 -24.3006 84° East  Level Estimated
Tue 01:40:00 AM 44.5672 -24.0953 84° East  Level Estimated
Tue 01:41:00 AM 44.5813 -23.8898 84° East  Level Estimated
Tue 01:42:00 AM 44.5951 -23.6843 85° East  Level Estimated
Tue 01:43:00 AM 44.6084 -23.4786 85° East  Level Estimated
Tue 01:44:00 AM 44.6214 -23.2729 85° East  Level Estimated
Tue 01:45:00 AM 44.6340 -23.0670 85° East  Level Estimated
Tue 01:46:00 AM 44.6463 -22.8611 85° East  Level Estimated
Tue 01:47:00 AM 44.6581 -22.6551 85° East  Level Estimated
Tue 01:48:00 AM 44.6697 -22.4490 85° East  Level Estimated
Tue 01:49:00 AM 44.6808 -22.2428 86° East  Level Estimated
Tue 01:50:00 AM 44.6916 -22.0365 86° East  Level Estimated
Tue 01:51:00 AM 44.7020 -21.8302 86° East  Level Estimated
Tue 01:52:00 AM 44.7120 -21.6238 86° East  Level Estimated
Tue 01:53:00 AM 44.7216 -21.4173 86° East  Level Estimated
Tue 01:54:00 AM 44.7309 -21.2108 86° East  Level Estimated
Tue 01:55:00 AM 44.7398 -21.0042 86° East  Level Estimated
Tue 01:56:00 AM 44.7484 -20.7975 87° East  Level Estimated
Tue 01:57:00 AM 44.7565 -20.5908 87° East  Level Estimated
Tue 01:58:00 AM 44.7643 -20.3840 87° East  Level Estimated
Tue 01:59:00 AM 44.7717 -20.1772 87° East  Level Estimated
Tue 02:00:00 AM 44.7788 -19.9703 87° East  Level Estimated
Tue 02:01:00 AM 44.7854 -19.7633 87° East  Level Estimated
Tue 02:02:00 AM 44.7918 -19.5563 87° East  Level Estimated
Tue 02:03:00 AM 44.7977 -19.3493 88° East  Level Estimated
Tue 02:04:00 AM 44.8032 -19.1422 88° East  Level Estimated
Tue 02:05:00 AM 44.8084 -18.9351 88° East  Level Estimated
Tue 02:06:00 AM 44.8132 -18.7280 88° East  Level Estimated
Tue 02:07:00 AM 44.8176 -18.5208 88° East  Level Estimated
Tue 02:08:00 AM 44.8217 -18.3136 88° East  Level Estimated
Tue 02:09:00 AM 44.8253 -18.1063 88° East  Level Estimated
Tue 02:10:00 AM 44.8286 -17.8991 89° East  Level Estimated
Tue 02:11:00 AM 44.8316 -17.6918 89° East  Level Estimated
Tue 02:12:00 AM 44.8341 -17.4845 89° East  Level Estimated
Tue 02:13:00 AM 44.8363 -17.2772 89° East  Level Estimated
Tue 02:14:00 AM 44.8381 -17.0698 89° East  Level Estimated
Tue 02:15:00 AM 44.8395 -16.8625 89° East  Level Estimated
Tue 02:16:00 AM 44.8406 -16.6551 90° East  Level Estimated
Tue 02:17:00 AM 44.8413 -16.4478 90° East  Level Estimated
Tue 02:18:00 AM 44.8415 -16.2404 90° East  Level Estimated
Tue 02:19:00 AM 44.8415 -16.0330 90° East  Level Estimated
Tue 02:20:00 AM 44.8410 -15.8256 90° East  Level Estimated
Tue 02:21:00 AM 44.8402 -15.6183 90° East  Level Estimated
Tue 02:22:00 AM 44.8390 -15.4109 90° East  Level Estimated
Tue 02:23:00 AM 44.8374 -15.2036 91° East  Level Estimated
Tue 02:24:00 AM 44.8355 -14.9963 91° East  Level Estimated
Tue 02:25:00 AM 44.8331 -14.7889 91° East  Level Estimated
Tue 02:26:00 AM 44.8304 -14.5816 91° East  Level Estimated
Tue 02:27:00 AM 44.8274 -14.3744 91° East  Level Estimated
Tue 02:28:00 AM 44.8239 -14.1671 91° East  Level Estimated
Tue 02:29:00 AM 44.8201 -13.9599 91° East  Level Estimated
Tue 02:30:00 AM 44.8159 -13.7527 92° East  Level Estimated
Tue 02:31:00 AM 44.8113 -13.5455 92° East  Level Estimated
Tue 02:32:00 AM 44.8063 -13.3384 92° East  Level Estimated
Tue 02:33:00 AM 44.8010 -13.1313 92° East  Level Estimated
Tue 02:34:00 AM 44.7953 -12.9242 92° East  Level Estimated
Tue 02:35:00 AM 44.7892 -12.7172 92° East  Level Estimated
Tue 02:36:00 AM 44.7828 -12.5102 92° East  Level Estimated
Tue 02:37:00 AM 44.7760 -12.3033 93° East  Level Estimated
Tue 02:37:57 AM 43.3566 -11.7174 93° East 548 631 36,100  Level FlightAware ADS-B (LECO / LCG)
Tue 02:38:00 AM 44.7688 -12.0964 93° East  Level Estimated
Tue 02:38:44 AM 43.3400 -11.5770 99° East 548 631 36,100  Level FlightAware ADS-B
Tue 02:39:20 AM 43.3280 -11.4710 99° East 548 631 36,100  Level FlightAware ADS-B
Tue 02:39:22 AM 43.3490 -11.6560 279° West 534 615 36,100  Level FlightAware ADS-B
Tue 02:40:00 AM 43.3170 -11.5550 114° Southeast 534 615 36,100  Level FlightAware ADS-B
Tue 02:40:23 AM 43.2482 -11.2685 108° East 532 612 36,100  Level FlightAware ADS-B (LECO / LCG)
Tue 02:41:10 AM 43.2030 -11.1350 115° Southeast 532 612 36,100  Level FlightAware ADS-B
Tue 02:41:38 AM 43.2400 -11.2440 295° West 532 612 36,100  Level FlightAware ADS-B
Tue 02:42:18 AM 43.2060 -11.1390 114° Southeast 532 612 36,100  Level FlightAware ADS-B
Tue 02:43:06 AM 43.2190 -11.1790 294° West 529 609 36,100  Level FlightAware ADS-B
Tue 02:43:43 AM 43.1870 -11.0820 114° Southeast 529 609 36,100  Level FlightAware ADS-B
Tue 02:44:23 AM 43.0179 -10.5095 112° Southeast 539 620 36,100  Level FlightAware ADS-B (LECO / LCG)
Tue 02:44:53 AM 43.0045 -10.4060 100° East 537 618 36,100  Level FlightAware ADS-B (LECO / LCG)
Tue 02:45:32 AM 42.9936 -10.2756 96° East 537 618 36,100  Level FlightAware ADS-B (LECO / LCG)
Tue 02:46:03 AM 42.9890 -10.1747 94° East 539 620 36,100  Level FlightAware ADS-B (LECO / LCG)
Tue 02:46:42 AM 42.9868 -10.0358 91° East 543 625 36,100  Level FlightAware ADS-B (LECO / LCG)
Tue 02:47:13 AM 42.9855 -9.9329 91° East 547 629 36,100  Level FlightAware ADS-B (LECO / LCG)
Tue 02:47:52 AM 42.9836 -9.7932 91° East 552 635 36,100  Level FlightAware ADS-B (LECO / LCG)
Tue 02:48:23 AM 42.9818 -9.6836 91° East 555 639 36,100  Level FlightAware ADS-B (LECO / LCG)
Tue 02:48:53 AM 42.9797 -9.5799 92° East 557 641 36,100  Level FlightAware ADS-B (LECO / LCG)
Tue 02:49:33 AM 42.9763 -9.4389 92° East 559 643 36,100  Level FlightAware ADS-B (LECO / LCG)
Tue 02:50:03 AM 42.9735 -9.3307 92° East 559 643 36,100  Level FlightAware ADS-B (LECO / LCG)
Tue 02:50:42 AM 42.9699 -9.2007 92° East 559 643 36,100  Level FlightAware ADS-B (LECO / LCG)
Tue 02:51:21 AM 42.9658 -9.0556 92° East 558 642 36,100  Level FlightAware ADS-B (LECO / LCG)
Tue 02:51:51 AM 42.9630 -8.9626 92° East 560 644 36,100  Level FlightAware ADS-B (LECO / LCG)
Tue 02:52:22 AM 42.9591 -8.8417 93° East 560 644 36,100  Level FlightAware ADS-B (LECO / LCG)
Tue 02:52:52 AM 42.9559 -8.7432 93° East 560 644 36,100  Level FlightAware ADS-B (LECO / LCG)
Tue 02:53:22 AM 42.9521 -8.6306 93° East 558 642 36,100  Level FlightAware ADS-B (LECO / LCG)
Tue 02:54:02 AM 42.9476 -8.4986 93° East 554 638 36,100  Level FlightAware ADS-B (LECO / LCG)
Tue 02:54:32 AM 42.9417 -8.3885 94° East 551 634 36,100  Level FlightAware ADS-B (LECO / LCG)
Tue 02:55:08 AM 42.9333 -8.2635 95° East 551 634 36,100  Level FlightAware ADS-B (LECO / LCG)
Tue 02:55:41 AM 42.9274 -8.1505 94° East 550 633 36,100  Level FlightAware ADS-B (LECO / LCG)
Tue 02:56:13 AM 42.9215 -8.0426 94° East 551 634 36,100  Level FlightAware ADS-B (LECO / LCG)
Tue 02:56:43 AM 42.9153 -7.9370 95° East 549 632 36,100  Level FlightAware ADS-B (LECO / LCG)
Tue 02:57:13 AM 42.9086 -7.8304 95° East 548 631 36,100  Level FlightAware ADS-B (LECO / LCG)
Tue 02:57:52 AM 42.9002 -7.7014 95° East 545 627 36,100  Level FlightAware ADS-B (LECO / LCG)
Tue 02:58:23 AM 42.8926 -7.5912 95° East 544 626 36,100  Level FlightAware ADS-B (LECO / LCG)
Tue 02:58:53 AM 42.8858 -7.4902 95° East 544 626 36,100  Level FlightAware ADS-B (LECO / LCG)
Tue 02:59:23 AM 42.8786 -7.3880 95° East 545 627 36,100  Level FlightAware ADS-B (LECO / LCG)
Tue 02:59:53 AM 42.8722 -7.2984 95° East 545 627 36,100  Level FlightAware ADS-B (LECO / LCG)
Tue 03:00:23 AM 42.8643 -7.1874 95° East 546 628 36,100  Level FlightAware ADS-B (LECO / LCG)
Tue 03:00:59 AM 42.8549 -7.0585 96° East 546 628 36,100  Level FlightAware ADS-B (LECO / LCG)
Tue 03:01:30 AM 42.8475 -6.9547 95° East 546 628 36,100  Level FlightAware ADS-B (LECO / LCG)
Tue 03:02:00 AM 42.8399 -6.8509 96° East 546 628 36,100  Level FlightAware ADS-B (LECO / LCG)
Tue 03:02:40 AM 42.8300 -6.7158 96° East 545 627 36,100  Level FlightAware ADS-B (LECO / LCG)
Tue 03:03:10 AM 42.8228 -6.6203 96° East 546 628 36,100  Level FlightAware ADS-B (LECO / LCG)
Tue 03:03:58 AM 42.8110 -6.4540 95° East 545 627 36,100  Level FlightAware ADS-B
Tue 03:04:34 AM 42.8010 -6.3310 96° East 545 627 36,100  Level FlightAware ADS-B
Tue 03:05:08 AM 42.7920 -6.2100 96° East 544 626 36,100  Level FlightAware ADS-B
Tue 03:05:48 AM 42.7810 -6.0750 96° East 542 624 36,100  Level FlightAware ADS-B
Tue 03:06:23 AM 42.7680 -5.9590 99° East 536 617 36,100  Level FlightAware ADS-B
Tue 03:06:58 AM 42.7520 -5.8420 101° East 537 618 36,100  Level FlightAware ADS-B
Tue 03:07:28 AM 42.7380 -5.7440 101° East 536 617 36,100  Level FlightAware ADS-B
Tue 03:08:08 AM 42.7200 -5.6130 101° East 534 615 36,100  Level FlightAware ADS-B
Tue 03:08:43 AM 42.7030 -5.4980 101° East 533 613 36,100  Level FlightAware ADS-B
Tue 03:09:13 AM 42.6880 -5.3960 101° East 533 613 36,100  Level FlightAware ADS-B
Tue 03:09:48 AM 42.6720 -5.2820 101° East 532 612 36,100  Level FlightAware ADS-B
Tue 03:10:23 AM 42.6550 -5.1690 102° East 532 612 36,100  Level FlightAware ADS-B
Tue 03:11:01 AM 42.6400 -5.0630 101° East 532 612 36,100  Level FlightAware ADS-B
Tue 03:11:36 AM 42.6230 -4.9330 100° East 539 620 36,100  Level FlightAware ADS-B
Tue 03:12:12 AM 42.6140 -4.8090 96° East 538 619 36,100  Level FlightAware ADS-B
Tue 03:12:48 AM 42.6060 -4.6860 95° East 532 612 36,100  Level FlightAware ADS-B
Tue 03:13:21 AM 42.5990 -4.5770 95° East 525 604 36,100  Level FlightAware ADS-B
Tue 03:13:58 AM 42.5910 -4.4580 95° East 518 596 36,100  Level FlightAware ADS-B
Tue 03:14:32 AM 42.5830 -4.3460 96° East 513 590 36,100  Level FlightAware ADS-B
Tue 03:15:03 AM 42.5770 -4.2480 95° East 511 588 36,100  Level FlightAware ADS-B
Tue 03:15:42 AM 42.5630 -4.1270 99° East 506 582 36,100  Level FlightAware ADS-B
Tue 03:16:16 AM 42.5490 -4.0190 100° East 508 585 36,100  Level FlightAware ADS-B
Tue 03:16:53 AM 42.5340 -3.9030 100° East 510 587 36,100  Level FlightAware ADS-B
Tue 03:17:26 AM 42.5210 -3.7990 100° East 516 594 36,100  Level FlightAware ADS-B
Tue 03:18:03 AM 42.5070 -3.6830 99° East 519 597 36,100  Level FlightAware ADS-B
Tue 03:18:39 AM 42.4930 -3.5690 99° East 524 603 36,100  Level FlightAware ADS-B
Tue 03:19:10 AM 42.4800 -3.4660 100° East 527 606 36,100  Level FlightAware ADS-B
Tue 03:19:47 AM 42.4650 -3.3450 99° East 528 608 36,100  Level FlightAware ADS-B
Tue 03:20:23 AM 42.4510 -3.2260 99° East 527 606 36,100  Level FlightAware ADS-B
Tue 03:20:56 AM 42.4370 -3.1200 100° East 527 606 36,100  Level FlightAware ADS-B
Tue 03:21:31 AM 42.4230 -3.0080 100° East 526 605 36,100  Level FlightAware ADS-B
Tue 03:22:08 AM 42.4070 -2.8890 100° East 525 604 36,100  Level FlightAware ADS-B
Tue 03:22:42 AM 42.3920 -2.7750 100° East 525 604 36,100  Level FlightAware ADS-B
Tue 03:23:15 AM 42.3770 -2.6690 101° East 528 608 36,100  Level FlightAware ADS-B
Tue 03:23:51 AM 42.3610 -2.5530 101° East 529 609 36,100  Level FlightAware ADS-B
Tue 03:24:28 AM 42.3440 -2.4320 101° East 528 608 36,100  Level FlightAware ADS-B
Tue 03:25:00 AM 42.3300 -2.3280 100° East 531 611 36,100  Level FlightAware ADS-B
Tue 03:25:37 AM 42.3140 -2.2120 101° East 534 615 36,100  Level FlightAware ADS-B
Tue 03:26:13 AM 42.2970 -2.0890 101° East 535 616 36,100  Level FlightAware ADS-B
Tue 03:26:46 AM 42.2810 -1.9870 102° East 532 612 36,100  Level FlightAware ADS-B
Tue 03:27:23 AM 42.2560 -1.8670 106° East 530 610 36,100  Level FlightAware ADS-B
Tue 03:27:58 AM 42.2320 -1.7560 106° East 530 610 36,100  Level FlightAware ADS-B
Tue 03:28:30 AM 42.2100 -1.6520 106° East 528 608 36,100  Level FlightAware ADS-B
Tue 03:29:07 AM 42.1850 -1.5340 106° East 528 608 36,100  Level FlightAware ADS-B
Tue 03:29:40 AM 42.1620 -1.4320 107° East 533 613 36,100  Level FlightAware ADS-B
Tue 03:30:18 AM 42.1350 -1.3070 106° East 536 617 36,100  Level FlightAware ADS-B
Tue 03:30:51 AM 42.1130 -1.2090 107° East 537 618 36,100  Level FlightAware ADS-B
Tue 03:31:28 AM 42.0860 -1.0870 107° East 537 618 36,100  Level FlightAware ADS-B
Tue 03:31:58 AM 42.0640 -0.9880 107° East 537 618 36,100  Level FlightAware ADS-B
Tue 03:32:35 AM 42.0370 -0.8700 107° East 537 618 36,100  Level FlightAware ADS-B
Tue 03:33:12 AM 42.0110 -0.7520 106° East 539 620 36,100  Level FlightAware ADS-B
Tue 03:33:49 AM 41.9840 -0.6370 107° East 530 610 36,100  Level FlightAware ADS-B
Tue 03:34:21 AM 41.9610 -0.5360 107° East 525 604 36,100  Level FlightAware ADS-B
Tue 03:34:57 AM 41.9350 -0.4220 107° East 519 597 36,100  Level FlightAware ADS-B
Tue 03:35:30 AM 41.9120 -0.3220 107° East 516 594 36,100  Level FlightAware ADS-B
Tue 03:36:05 AM 41.8870 -0.2150 107° East 516 594 36,100  Level FlightAware ADS-B
Tue 03:36:43 AM 41.8600 -0.0990 107° East 513 590 36,100  Level FlightAware ADS-B
Tue 03:37:18 AM 41.8350 0.0080 107° East 513 590 36,100  Level FlightAware ADS-B
Tue 03:37:50 AM 41.8120 0.1070 107° East 512 589 36,100  Level FlightAware ADS-B
Tue 03:38:25 AM 41.7870 0.2110 108° East 513 590 36,100  Level FlightAware ADS-B
Tue 03:39:02 AM 41.7610 0.3220 107° East 514 592 36,100  Level FlightAware ADS-B
Tue 03:39:39 AM 41.7350 0.4350 107° East 517 595 36,100  Level FlightAware ADS-B
Tue 03:40:07 AM 41.7152 0.5209 107° East 519 597 36,100  Level FlightAware ADS-B (YBCS / CNS)
Tue 03:40:38 AM 41.6940 0.6114 107° East 519 597 36,100  Level FlightAware ADS-B (YBCS / CNS)
Tue 03:41:08 AM 41.6708 0.7100 107° East 519 597 36,100  Level FlightAware ADS-B (YBCS / CNS)
Tue 03:41:39 AM 41.6474 0.8014 109° East 519 597 36,100  Level FlightAware ADS-B (YBCS / CNS)
Tue 03:42:09 AM 41.6236 0.8930 109° East 518 596 36,100  Level FlightAware ADS-B (YBCS / CNS)
Tue 03:42:39 AM 41.6005 0.9815 109° East 516 594 36,100  Level FlightAware ADS-B (YBCS / CNS)
Tue 03:43:09 AM 41.5760 1.0749 109° East 515 593 36,100  Level FlightAware ADS-B (YBCS / CNS)
Tue 03:43:48 AM 41.5462 1.1930 109° East 515 593 36,100  Level FlightAware ADS-B (YBCS / CNS)
Tue 03:44:19 AM 41.5258 1.2834 107° East 515 593 36,100  Level FlightAware ADS-B (YBCS / CNS)
Tue 03:44:59 AM 41.4983 1.4060 107° East 514 592 36,100  Level FlightAware ADS-B (YBCS / CNS)
Tue 03:45:29 AM 41.4776 1.4953 107° East 513 590 36,100  Level FlightAware ADS-B (YBCS / CNS)
Tue 03:46:09 AM 41.4492 1.6144 108° East 511 588 36,100  Level FlightAware ADS-B (YBCS / CNS)
Tue 03:46:39 AM 41.4269 1.7056 108° East 509 586 36,100  Level FlightAware ADS-B (YBCS / CNS)
Tue 03:47:18 AM 41.3960 1.8235 109° East 509 586 36,100  Level FlightAware ADS-B (YBCS / CNS)
Tue 03:47:48 AM 41.3742 1.9065 109° East 508 585 36,100  Level FlightAware ADS-B (YBCS / CNS)
Tue 03:48:21 AM 41.3480 2.0070 109° East 508 585 36,100  Level FlightAware ADS-B
Tue 03:48:29 AM 41.3416 2.0317 109° East 509 586 36,100  Level FlightAware ADS-B (YBCS / CNS)
Tue 03:49:00 AM 41.3196 2.1240 108° East 509 586 36,100  Level FlightAware ADS-B (YBCS / CNS)
Tue 03:49:32 AM 41.3010 2.2230 104° East 509 586 36,100  Level FlightAware ADS-B
Tue 03:50:05 AM 41.2850 2.3200 102° East 509 586 36,100  Level FlightAware ADS-B
Tue 03:50:41 AM 41.2670 2.4310 102° East 508 585 36,100  Level FlightAware ADS-B
Tue 03:51:18 AM 41.2480 2.5460 102° East 507 583 36,100  Level FlightAware ADS-B
Tue 03:51:51 AM 41.2320 2.6430 102° East 506 582 36,100  Level FlightAware ADS-B
Tue 03:52:28 AM 41.2120 2.7550 103° East 506 582 36,100  Level FlightAware ADS-B
Tue 03:53:00 AM 41.1950 2.8540 103° East 506 582 36,100  Level FlightAware ADS-B
Tue 03:53:35 AM 41.1780 2.9560 102° East 504 580 36,100  Level FlightAware ADS-B
Tue 03:54:10 AM 41.1600 3.0580 103° East 503 579 36,100  Level FlightAware ADS-B
Tue 03:54:44 AM 41.1410 3.1670 103° East 502 578 36,100  Level FlightAware ADS-B
Tue 03:55:21 AM 41.1220 3.2760 103° East 500 575 36,100  Level FlightAware ADS-B
Tue 03:55:56 AM 41.1030 3.3810 103° East 499 574 36,100  Level FlightAware ADS-B
Tue 03:56:33 AM 41.0840 3.4880 103° East 498 573 36,100  Level FlightAware ADS-B
Tue 03:57:09 AM 41.0640 3.6010 103° East 498 573 36,100  Level FlightAware ADS-B
Tue 03:57:41 AM 41.0490 3.6880 103° East 498 573 36,100  Level FlightAware ADS-B
Tue 03:58:16 AM 41.0300 3.7890 104° East 498 573 36,100  Level FlightAware ADS-B
Tue 03:58:51 AM 41.0110 3.8970 103° East 500 575 36,100  Level FlightAware ADS-B
Tue 03:59:27 AM 40.9930 3.9970 103° East 502 578 36,100  Level FlightAware ADS-B
Tue 04:00:03 AM 40.9720 4.1160 103° East 505 581 36,100  Level FlightAware ADS-B
Tue 04:00:37 AM 40.9530 4.2200 104° East 505 581 36,100  Level FlightAware ADS-B
Tue 04:01:10 AM 40.9420 4.2830 103° East 506 582 36,100  Level FlightAware ADS-B
Tue 04:01:47 AM 40.9150 4.4280 104° East 505 581 36,100  Level FlightAware ADS-B
Tue 04:02:21 AM 40.8950 4.5320 104° East 505 581 36,100  Level FlightAware ADS-B
Tue 04:02:56 AM 40.8770 4.6370 103° East 505 581 36,100  Level FlightAware ADS-B
Tue 04:03:33 AM 40.8610 4.7480 101° East 505 581 36,100  Level FlightAware ADS-B
Tue 04:04:08 AM 40.8510 4.8560 97° East 505 581 36,100  Level FlightAware ADS-B
Tue 04:04:42 AM 40.8430 4.9440 97° East 504 580 36,100  Level FlightAware ADS-B
Tue 04:05:18 AM 40.8340 5.0330 98° East 505 581 36,100  Level FlightAware ADS-B
Tue 04:05:54 AM 40.8250 5.1270 97° East 505 581 36,100  Level FlightAware ADS-B
Tue 04:06:30 AM 40.8160 5.2200 97° East 505 581 36,100  Level FlightAware ADS-B
Tue 04:07:05 AM 40.7980 5.3950 98° East 505 581 36,100  Level FlightAware ADS-B
Tue 04:07:46 AM 40.7850 5.5230 98° East 505 581 36,100  Level FlightAware ADS-B
Tue 04:08:19 AM 40.7770 5.6070 97° East 505 581 36,100  Level FlightAware ADS-B
Tue 04:08:53 AM 40.7650 5.7260 98° East 505 581 36,100  Level FlightAware ADS-B
Tue 04:09:26 AM 40.7550 5.8280 97° East 506 582 36,100  Level FlightAware ADS-B
Tue 04:10:05 AM 40.7430 5.9420 98° East 506 582 36,100  Level FlightAware ADS-B
Tue 04:10:40 AM 40.7320 6.0540 97° East 506 582 36,100  Level FlightAware ADS-B
Tue 04:11:11 AM 40.7230 6.1440 97° East 505 581 36,100  Level FlightAware ADS-B
Tue 04:12:00 AM 40.7080 6.2920 98° East 503 579 36,100  Level FlightAware ADS-B
Tue 04:12:35 AM 40.6970 6.3990 98° East 502 578 36,100  Level FlightAware ADS-B
Tue 04:13:10 AM 40.6850 6.5050 98° East 501 577 36,100  Level FlightAware ADS-B
Tue 04:13:45 AM 40.6730 6.6110 98° East 500 575 36,100  Level FlightAware ADS-B
Tue 04:14:20 AM 40.6620 6.7150 98° East 499 574 36,100  Level FlightAware ADS-B
Tue 04:14:55 AM 40.6500 6.8220 98° East 497 572 36,100  Level FlightAware ADS-B
Tue 04:15:30 AM 40.6390 6.9280 98° East 495 570 36,100  Level FlightAware ADS-B
Tue 04:16:15 AM 40.6240 7.0610 98° East 493 567 36,100  Level FlightAware ADS-B
Tue 04:16:50 AM 40.6120 7.1630 99° East 492 566 36,100  Level FlightAware ADS-B
Tue 04:17:30 AM 40.5990 7.2840 98° East 491 565 36,100  Level FlightAware ADS-B
Tue 04:18:05 AM 40.5870 7.3870 99° East 491 565 36,100  Level FlightAware ADS-B
Tue 04:18:40 AM 40.5810 7.4910 94° East 487 560 36,100  Level FlightAware ADS-B
Tue 04:19:15 AM 40.5870 7.5930 86° East 483 556 36,100  Level FlightAware ADS-B
Tue 04:19:50 AM 40.5960 7.6960 83° East 482 555 36,100  Level FlightAware ADS-B
Tue 04:20:25 AM 40.6060 7.7970 83° East 481 554 36,100  Level FlightAware ADS-B
Tue 04:21:00 AM 40.6150 7.8980 83° East 481 554 36,100  Level FlightAware ADS-B
Tue 04:21:35 AM 40.6240 8.0000 83° East 480 552 36,100  Level FlightAware ADS-B
Tue 04:22:13 AM 40.6330 8.1020 83° East 482 555 36,100  Level FlightAware ADS-B
Tue 04:22:45 AM 40.6410 8.2050 84° East 481 554 36,100  Level FlightAware ADS-B
Tue 04:23:05 AM 40.6400 8.2630 91° East 485 558 36,100  Level FlightAware ADS-B
Tue 04:23:45 AM 40.6210 8.3800 102° East 487 560 36,100  Level FlightAware ADS-B
Tue 04:24:15 AM 40.6050 8.4650 104° East 486 559 36,100  Level FlightAware ADS-B
Tue 04:24:50 AM 40.5850 8.5670 104° East 486 559 36,100  Level FlightAware ADS-B
Tue 04:25:30 AM 40.5620 8.6810 105° East 485 558 36,100  Level FlightAware ADS-B
Tue 04:26:00 AM 40.5450 8.7670 105° East 485 558 36,100  Level FlightAware ADS-B
Tue 04:26:35 AM 40.5250 8.8670 105° East 485 558 36,100  Level FlightAware ADS-B
Tue 04:27:15 AM 40.5020 8.9810 105° East 485 558 36,100  Level FlightAware ADS-B
Tue 04:27:45 AM 40.4850 9.0670 105° East 485 558 36,100  Level FlightAware ADS-B
Tue 04:28:20 AM 40.4650 9.1680 105° East 485 558 36,100  Level FlightAware ADS-B
Tue 04:28:55 AM 40.4450 9.2680 105° East 486 559 36,100  Level FlightAware ADS-B
Tue 04:29:35 AM 40.4220 9.3820 105° East 486 559 36,100  Level FlightAware ADS-B
Tue 04:30:05 AM 40.4050 9.4680 105° East 487 560 36,100  Level FlightAware ADS-B
Tue 04:30:40 AM 40.3850 9.5680 105° East 487 560 36,100  Level FlightAware ADS-B
Tue 04:31:20 AM 40.3610 9.6840 105° East 489 563 36,100  Level FlightAware ADS-B
Tue 04:31:50 AM 40.3440 9.7690 105° East 489 563 36,100 462 Level FlightAware ADS-B
Tue 04:32:25 AM 40.3230 9.8700 105° East 491 565 36,600 857 Climbing FlightAware ADS-B
Tue 04:33:00 AM 40.3020 9.9700 105° East 490 564 37,100 429 Climbing FlightAware ADS-B
Tue 04:33:35 AM 40.2820 10.0690 105° East 491 565 37,100  Level FlightAware ADS-B
Tue 04:34:10 AM 40.2610 10.1700 105° East 491 565 37,100  Level FlightAware ADS-B
Tue 04:34:46 AM 40.2400 10.2700 105° East 490 564 37,100  Level FlightAware ADS-B
Tue 04:35:20 AM 40.2190 10.3700 105° East 490 564 37,100  Level FlightAware ADS-B
Tue 04:35:55 AM 40.1980 10.4700 105° East 488 562 37,100  Level FlightAware ADS-B
Tue 04:36:35 AM 40.1740 10.5830 106° East 488 562 37,100  Level FlightAware ADS-B
Tue 04:37:05 AM 40.1550 10.6690 106° East 488 562 37,100  Level FlightAware ADS-B
Tue 04:37:40 AM 40.1330 10.7680 106° East 487 560 37,100  Level FlightAware ADS-B
Tue 04:38:15 AM 40.1110 10.8690 106° East 487 560 37,100  Level FlightAware ADS-B
Tue 04:38:55 AM 40.0870 10.9810 106° East 487 560 37,100  Level FlightAware ADS-B
Tue 04:39:25 AM 40.0680 11.0660 106° East 486 559 37,100  Level FlightAware ADS-B
Tue 04:40:00 AM 40.0470 11.1630 106° East 486 559 37,100  Level FlightAware ADS-B
Tue 04:40:35 AM 40.0250 11.2630 106° East 485 558 37,100  Level FlightAware ADS-B
Tue 04:41:10 AM 40.0060 11.3500 106° East 485 558 37,100  Level FlightAware ADS-B
Tue 04:41:45 AM 39.9820 11.4590 106° East 485 558 37,100  Level FlightAware ADS-B
Tue 04:42:21 AM 39.9600 11.5570 106° East 484 557 37,100  Level FlightAware ADS-B
Tue 04:42:59 AM 39.9360 11.6650 106° East 484 557 37,100  Level FlightAware ADS-B
Tue 04:43:35 AM 39.9130 11.7700 106° East 485 558 37,100  Level FlightAware ADS-B
Tue 04:44:06 AM 39.8940 11.8530 107° East 485 558 37,100  Level FlightAware ADS-B
Tue 04:44:44 AM 39.8690 11.9630 106° East 486 559 37,100  Level FlightAware ADS-B
Tue 04:45:13 AM 39.8500 12.0460 107° East 485 558 37,100  Level FlightAware ADS-B
Tue 04:45:50 AM 39.8290 12.1420 106° East 487 560 37,100  Level FlightAware ADS-B
Tue 04:46:26 AM 39.8050 12.2480 106° East 486 559 37,100  Level FlightAware ADS-B
Tue 04:47:03 AM 39.7820 12.3510 106° East 486 559 37,100  Level FlightAware ADS-B
Tue 04:47:37 AM 39.7590 12.4480 107° East 487 560 37,100  Level FlightAware ADS-B
Tue 04:48:12 AM 39.7370 12.5410 107° East 486 559 37,100  Level FlightAware ADS-B
Tue 04:48:50 AM 39.7120 12.6500 107° East 487 560 37,100  Level FlightAware ADS-B
Tue 04:49:27 AM 39.6870 12.7560 107° East 488 562 37,100  Level FlightAware ADS-B
Tue 04:49:59 AM 39.6660 12.8450 107° East 488 562 37,100  Level FlightAware ADS-B
Tue 04:50:35 AM 39.6410 12.9480 107° East 488 562 37,100  Level FlightAware ADS-B
Tue 04:51:11 AM 39.6170 13.0490 107° East 488 562 37,100  Level FlightAware ADS-B
Tue 04:51:43 AM 39.5960 13.1370 107° East 488 562 37,100  Level FlightAware ADS-B
Tue 04:52:22 AM 39.5700 13.2430 108° East 488 562 37,100  Level FlightAware ADS-B
Tue 04:52:53 AM 39.5480 13.3320 108° East 488 562 37,100  Level FlightAware ADS-B
Tue 04:53:29 AM 39.5240 13.4330 107° East 488 562 37,100  Level FlightAware ADS-B
Tue 04:54:05 AM 39.4990 13.5340 108° East 489 563 37,100  Level FlightAware ADS-B
Tue 04:54:39 AM 39.4760 13.6300 107° East 488 562 37,100  Level FlightAware ADS-B
Tue 04:55:15 AM 39.4520 13.7290 107° East 489 563 37,100  Level FlightAware ADS-B
Tue 04:55:49 AM 39.4280 13.8240 108° East 488 562 37,100  Level FlightAware ADS-B
Tue 04:56:25 AM 39.4040 13.9240 107° East 489 563 37,100  Level FlightAware ADS-B
Tue 04:56:59 AM 39.3810 14.0160 108° East 489 563 37,100  Level FlightAware ADS-B
Tue 04:57:35 AM 39.3560 14.1180 108° East 489 563 37,100  Level FlightAware ADS-B
Tue 04:58:11 AM 39.3310 14.2170 108° East 489 563 37,100  Level FlightAware ADS-B
Tue 04:58:45 AM 39.3140 14.3110 103° East 491 565 37,100  Level FlightAware ADS-B
Tue 04:59:18 AM 39.3030 14.4130 98° East 492 566 37,100  Level FlightAware ADS-B
Tue 04:59:55 AM 39.2890 14.5190 100° East 491 565 37,100  Level FlightAware ADS-B
Tue 05:00:24 AM 39.2760 14.5980 102° East 491 565 37,100  Level FlightAware ADS-B
Tue 05:01:10 AM 39.2560 14.7290 101° East 492 566 37,100  Level FlightAware ADS-B
Tue 05:01:46 AM 39.2400 14.8330 101° East 492 566 37,100  Level FlightAware ADS-B
Tue 05:02:20 AM 39.2260 14.9290 101° East 492 566 37,100  Level FlightAware ADS-B
Tue 05:02:58 AM 39.2080 15.0460 101° East 492 566 37,100  Level FlightAware ADS-B
Tue 05:03:32 AM 39.1940 15.1410 101° East 492 566 37,100  Level FlightAware ADS-B
Tue 05:04:08 AM 39.1780 15.2430 101° East 492 566 37,100  Level FlightAware ADS-B
Tue 05:04:44 AM 39.1620 15.3490 101° East 490 564 37,100  Level FlightAware ADS-B
Tue 05:05:16 AM 39.1490 15.4390 101° East 487 560 37,100  Level FlightAware ADS-B
Tue 05:05:52 AM 39.1340 15.5380 101° East 486 559 37,100  Level FlightAware ADS-B
Tue 05:06:34 AM 39.1150 15.6610 101° East 486 559 37,100  Level FlightAware ADS-B
Tue 05:07:10 AM 39.1000 15.7630 101° East 487 560 37,100  Level FlightAware ADS-B
Tue 05:07:46 AM 39.0840 15.8640 102° East 487 560 37,100  Level FlightAware ADS-B
Tue 05:08:18 AM 39.0700 15.9550 101° East 487 560 37,100  Level FlightAware ADS-B
Tue 05:08:54 AM 39.0530 16.0590 102° East 486 559 37,100  Level FlightAware ADS-B
Tue 05:09:30 AM 39.0360 16.1620 102° East 487 560 37,100  Level FlightAware ADS-B
Tue 05:10:04 AM 39.0200 16.2590 102° East 487 560 37,100  Level FlightAware ADS-B
Tue 05:10:40 AM 39.0040 16.3590 102° East 487 560 37,100  Level FlightAware ADS-B
Tue 05:11:09 AM 38.9920 16.4340 102° East 487 560 37,100  Level FlightAware ADS-B
Tue 05:12:02 AM 38.9650 16.5910 102° East 488 562 37,100  Level FlightAware ADS-B
Tue 05:12:36 AM 38.9490 16.6840 102° East 488 562 37,100  Level FlightAware ADS-B
Tue 05:13:12 AM 38.9310 16.7890 102° East 488 562 37,100  Level FlightAware ADS-B
Tue 05:13:48 AM 38.9130 16.8920 103° East 489 563 37,100  Level FlightAware ADS-B
Tue 05:14:24 AM 38.8950 16.9940 103° East 489 563 37,100  Level FlightAware ADS-B
Tue 05:15:00 AM 38.8780 17.0950 102° East 489 563 37,100  Level FlightAware ADS-B
Tue 05:15:32 AM 38.8620 17.1850 103° East 490 564 37,100  Level FlightAware ADS-B
Tue 05:16:09 AM 38.8440 17.2880 103° East 489 563 37,100  Level FlightAware ADS-B
Tue 05:16:42 AM 38.8270 17.3860 103° East 490 564 37,100  Level FlightAware ADS-B
Tue 05:17:20 AM 38.8080 17.4910 103° East 491 565 37,100  Level FlightAware ADS-B
Tue 05:17:52 AM 38.7910 17.5840 103° East 491 565 37,100  Level FlightAware ADS-B
Tue 05:18:28 AM 38.7740 17.6840 102° East 491 565 37,100  Level FlightAware ADS-B
Tue 05:19:04 AM 38.7550 17.7890 103° East 491 565 37,100  Level FlightAware ADS-B
Tue 05:19:36 AM 38.7390 17.8770 103° East 492 566 37,100  Level FlightAware ADS-B
Tue 05:20:14 AM 38.7190 17.9850 103° East 492 566 37,100  Level FlightAware ADS-B
Tue 05:20:50 AM 38.7010 18.0890 102° East 493 567 37,100  Level FlightAware ADS-B
Tue 05:21:22 AM 38.6840 18.1790 104° East 493 567 37,100  Level FlightAware ADS-B
Tue 05:21:58 AM 38.6660 18.2820 103° East 493 567 37,100  Level FlightAware ADS-B
Tue 05:22:34 AM 38.6470 18.3850 103° East 493 567 37,100  Level FlightAware ADS-B
Tue 05:23:10 AM 38.6280 18.4860 104° East 493 567 37,100  Level FlightAware ADS-B
Tue 05:23:40 AM 38.6130 18.5710 103° East 493 567 37,100  Level FlightAware ADS-B
Tue 05:24:18 AM 38.5920 18.6790 104° East 492 566 37,100  Level FlightAware ADS-B
Tue 05:24:54 AM 38.5730 18.7790 104° East 492 566 37,100  Level FlightAware ADS-B
Tue 05:25:30 AM 38.5540 18.8810 103° East 493 567 37,100  Level FlightAware ADS-B
Tue 05:26:04 AM 38.5440 18.9340 104° East 492 566 37,100  Level FlightAware ADS-B
Tue 05:26:43 AM 38.5270 19.0280 103° East 492 566 37,100  Level FlightAware ADS-B
Tue 05:27:19 AM 38.5110 19.1140 103° East 492 566 37,100  Level FlightAware ADS-B
Tue 05:27:54 AM 38.4640 19.2400 115° Southeast 493 567 37,100  Level FlightAware ADS-B
Tue 05:28:26 AM 38.4360 19.3320 111° Southeast 493 567 37,100  Level FlightAware ADS-B
Tue 05:29:03 AM 38.4060 19.4310 111° Southeast 493 567 37,100  Level FlightAware ADS-B
Tue 05:29:44 AM 38.3730 19.5380 111° Southeast 494 568 37,100  Level FlightAware ADS-B
Tue 05:30:19 AM 38.3490 19.6200 110° East 494 568 37,100  Level FlightAware ADS-B
Tue 05:30:55 AM 38.3150 19.7300 111° Southeast 494 568 37,100  Level FlightAware ADS-B
Tue 05:31:27 AM 38.2890 19.8170 111° Southeast 495 570 37,100  Level FlightAware ADS-B
Tue 05:32:07 AM 38.2540 19.9290 112° Southeast 495 570 37,100  Level FlightAware ADS-B
Tue 05:32:55 AM 38.2170 20.0490 111° Southeast 496 571 37,100  Level FlightAware ADS-B
Tue 05:33:35 AM 38.1900 20.1420 110° East 496 571 37,100  Level FlightAware ADS-B
Tue 05:34:11 AM 38.1390 20.3040 112° Southeast 497 572 37,100  Level FlightAware ADS-B
Tue 05:34:50 AM 38.1060 20.4090 112° Southeast 498 573 37,100  Level FlightAware ADS-B
Tue 05:35:28 AM 38.0790 20.4980 111° Southeast 498 573 37,100  Level FlightAware ADS-B
Tue 05:36:05 AM 38.0530 20.5840 111° Southeast 498 573 37,100  Level FlightAware ADS-B
Tue 05:36:33 AM 38.0220 20.6770 113° Southeast 500 575 37,100  Level FlightAware ADS-B
Tue 05:37:16 AM 37.9830 20.8010 112° Southeast 499 574 37,100  Level FlightAware ADS-B
Tue 05:37:43 AM 37.9590 20.8770 112° Southeast 500 575 37,100  Level FlightAware ADS-B
Tue 05:38:22 AM 37.9310 20.9670 112° Southeast 500 575 37,100  Level FlightAware ADS-B
Tue 05:39:01 AM 37.8900 21.0910 113° Southeast 501 577 37,100  Level FlightAware ADS-B
Tue 05:39:42 AM 37.8570 21.1940 112° Southeast 501 577 37,100  Level FlightAware ADS-B
Tue 05:40:26 AM 37.8180 21.3170 112° Southeast 501 577 37,100  Level FlightAware ADS-B
Tue 05:40:59 AM 37.7880 21.4100 112° Southeast 500 575 37,100  Level FlightAware ADS-B
Tue 05:41:35 AM 37.7560 21.5090 112° Southeast 498 573 37,100  Level FlightAware ADS-B
Tue 05:42:08 AM 37.7290 21.5950 112° Southeast 497 572 37,100  Level FlightAware ADS-B
Tue 05:42:42 AM 37.6990 21.6850 113° Southeast 496 571 37,100  Level FlightAware ADS-B
Tue 05:43:21 AM 37.6650 21.7920 112° Southeast 494 568 37,100  Level FlightAware ADS-B
Tue 05:44:01 AM 37.6300 21.8990 112° Southeast 493 567 37,100  Level FlightAware ADS-B
Tue 05:44:34 AM 37.6000 21.9900 113° Southeast 492 566 37,100  Level FlightAware ADS-B
Tue 05:45:12 AM 37.5670 22.0880 113° Southeast 492 566 37,100  Level FlightAware ADS-B
Tue 05:45:46 AM 37.5390 22.1750 112° Southeast 492 566 37,100  Level FlightAware ADS-B
Tue 05:46:23 AM 37.5050 22.2780 113° Southeast 491 565 37,100  Level FlightAware ADS-B
Tue 05:46:57 AM 37.4760 22.3670 112° Southeast 491 565 37,100  Level FlightAware ADS-B
Tue 05:47:28 AM 37.4490 22.4470 113° Southeast 490 564 37,100  Level FlightAware ADS-B
Tue 05:48:00 AM 37.4210 22.5320 113° Southeast 489 563 37,100  Level FlightAware ADS-B
Tue 05:48:36 AM 37.3900 22.6260 113° Southeast 490 564 37,100  Level FlightAware ADS-B
Tue 05:49:12 AM 37.3580 22.7200 113° Southeast 490 564 37,100  Level FlightAware ADS-B
Tue 05:49:45 AM 37.3300 22.8040 113° Southeast 490 564 37,100  Level FlightAware ADS-B
Tue 05:50:18 AM 37.3010 22.8880 113° Southeast 490 564 37,100  Level FlightAware ADS-B
Tue 05:50:56 AM 37.2650 22.9930 113° Southeast 491 565 37,100  Level FlightAware ADS-B
Tue 05:51:33 AM 37.2320 23.0910 113° Southeast 492 566 37,100  Level FlightAware ADS-B
Tue 05:52:04 AM 37.2060 23.1670 113° Southeast 493 567 37,100  Level FlightAware ADS-B
Tue 05:52:40 AM 37.1710 23.2640 114° Southeast 494 568 37,100  Level FlightAware ADS-B
Tue 05:53:17 AM 37.1360 23.3640 114° Southeast 495 570 37,100  Level FlightAware ADS-B
Tue 05:53:47 AM 37.1090 23.4400 114° Southeast 497 572 37,100  Level FlightAware ADS-B
Tue 05:54:26 AM 37.0730 23.5450 113° Southeast 498 573 37,100  Level FlightAware ADS-B
Tue 05:55:01 AM 37.0420 23.6360 113° Southeast 498 573 37,100  Level FlightAware ADS-B
Tue 05:55:38 AM 37.0070 23.7330 114° Southeast 499 574 37,100  Level FlightAware ADS-B
Tue 05:56:09 AM 36.9780 23.8160 114° Southeast 500 575 37,100  Level FlightAware ADS-B
Tue 05:56:46 AM 36.9450 23.9130 113° Southeast 501 577 37,100  Level FlightAware ADS-B
Tue 05:57:22 AM 36.9110 24.0110 113° Southeast 503 579 37,100  Level FlightAware ADS-B
Tue 05:57:56 AM 36.8780 24.1020 114° Southeast 504 580 37,100  Level FlightAware ADS-B
Tue 05:58:30 AM 36.8470 24.1900 114° Southeast 504 580 37,100  Level FlightAware ADS-B
Tue 05:59:06 AM 36.8130 24.2870 114° Southeast 505 581 37,100  Level FlightAware ADS-B
Tue 05:59:39 AM 36.7820 24.3750 114° Southeast 506 582 37,100  Level FlightAware ADS-B
Tue 06:00:13 AM 36.7500 24.4650 114° Southeast 507 583 37,100  Level FlightAware ADS-B
Tue 06:00:49 AM 36.7170 24.5570 114° Southeast 508 585 37,100  Level FlightAware ADS-B
Tue 06:01:27 AM 36.6790 24.6620 114° Southeast 508 585 37,100  Level FlightAware ADS-B
Tue 06:01:59 AM 36.6490 24.7460 114° Southeast 510 587 37,100  Level FlightAware ADS-B
Tue 06:02:36 AM 36.6130 24.8450 114° Southeast 511 588 37,100  Level FlightAware ADS-B
Tue 06:03:11 AM 36.5790 24.9370 115° Southeast 511 588 37,100  Level FlightAware ADS-B
Tue 06:03:47 AM 36.5440 25.0350 114° Southeast 512 589 37,100  Level FlightAware ADS-B
Tue 06:04:20 AM 36.5110 25.1280 114° Southeast 513 590 37,100  Level FlightAware ADS-B
Tue 06:04:56 AM 36.4760 25.2260 114° Southeast 514 592 37,100  Level FlightAware ADS-B
Tue 06:05:32 AM 36.4420 25.3230 114° Southeast 514 592 37,100  Level FlightAware ADS-B
Tue 06:06:08 AM 36.4070 25.4190 114° Southeast 515 593 37,100  Level FlightAware ADS-B
Tue 06:06:40 AM 36.3750 25.5060 115° Southeast 515 593 37,100  Level FlightAware ADS-B
Tue 06:07:16 AM 36.3390 25.6030 115° Southeast 515 593 37,100  Level FlightAware ADS-B
Tue 06:07:50 AM 36.3050 25.6950 115° Southeast 515 593 37,100  Level FlightAware ADS-B
Tue 06:08:22 AM 36.2740 25.7780 115° Southeast 515 593 37,100  Level FlightAware ADS-B
Tue 06:09:02 AM 36.2340 25.8850 115° Southeast 515 593 37,100  Level FlightAware ADS-B
Tue 06:09:38 AM 36.1980 25.9830 114° Southeast 516 594 37,100  Level FlightAware ADS-B
Tue 06:10:10 AM 36.1650 26.0690 115° Southeast 517 595 37,100  Level FlightAware ADS-B
Tue 06:10:46 AM 36.1290 26.1650 115° Southeast 518 596 37,100  Level FlightAware ADS-B
Tue 06:11:13 AM 36.1030 26.2340 115° Southeast 518 596 37,100  Level FlightAware ADS-B
Tue 06:12:08 AM 36.0450 26.3860 115° Southeast 519 597 37,100  Level FlightAware ADS-B
Tue 06:12:46 AM 36.0060 26.4890 115° Southeast 519 597 37,100  Level FlightAware ADS-B
Tue 06:13:18 AM 35.9730 26.5730 116° Southeast 521 600 37,100  Level FlightAware ADS-B
Tue 06:13:54 AM 35.9370 26.6690 115° Southeast 520 598 37,100  Level FlightAware ADS-B
Tue 06:14:30 AM 35.8990 26.7680 115° Southeast 520 598 37,100  Level FlightAware ADS-B
Tue 06:15:08 AM 35.8660 26.8550 115° Southeast 520 598 37,100  Level FlightAware ADS-B
Tue 06:15:44 AM 35.8350 26.9370 115° Southeast 520 598 37,100  Level FlightAware ADS-B
Tue 06:16:20 AM 35.8030 27.0190 116° Southeast 520 598 37,100  Level FlightAware ADS-B
Tue 06:16:56 AM 35.7720 27.1010 115° Southeast 520 598 37,100  Level FlightAware ADS-B
Tue 06:17:32 AM 35.7410 27.1840 115° Southeast 520 598 37,100  Level FlightAware ADS-B
Tue 06:18:09 AM 35.7090 27.2680 115° Southeast 520 598 37,100  Level FlightAware ADS-B
Tue 06:18:45 AM 35.6780 27.3500 115° Southeast 520 598 37,100  Level FlightAware ADS-B
Tue 06:19:21 AM 35.6470 27.4320 115° Southeast 520 598 37,100  Level FlightAware ADS-B
Tue 06:19:57 AM 35.6160 27.5140 115° Southeast 520 598 37,100  Level FlightAware ADS-B
Tue 06:20:33 AM 35.5850 27.5960 115° Southeast 520 598 37,100  Level FlightAware ADS-B
Tue 06:21:10 AM 35.5530 27.6810 115° Southeast 520 598 37,100  Level FlightAware ADS-B
Tue 06:21:46 AM 35.5220 27.7630 115° Southeast 520 598 37,100  Level FlightAware ADS-B
Tue 06:22:22 AM 35.4900 27.8450 116° Southeast 520 598 37,100  Level FlightAware ADS-B
Tue 06:22:58 AM 35.4590 27.9270 115° Southeast 520 598 37,100  Level FlightAware ADS-B
Tue 06:23:34 AM 35.4280 28.0080 115° Southeast 520 598 37,100  Level FlightAware ADS-B
Tue 06:24:11 AM 35.3960 28.0930 115° Southeast 520 598 37,100  Level FlightAware ADS-B
Tue 06:26:00 AM 35.2668 28.3796 119° Southeast  Level FlightAware Approximate
Tue 06:27:00 AM 35.1954 28.5369 119° Southeast  Level FlightAware Approximate
Tue 06:28:00 AM 35.1238 28.6940 119° Southeast  Level FlightAware Approximate
Tue 06:28:16 AM 35.0270 28.9510 119° Southeast 516 594 37,100  Level FlightAware ADS-B
Tue 06:29:05 AM 34.9770 29.0750 116° Southeast 517 595 37,100  Level FlightAware ADS-B
Tue 06:29:41 AM 34.9460 29.1560 115° Southeast 517 595 37,100  Level FlightAware ADS-B
Tue 06:30:15 AM 34.9170 29.2320 115° Southeast 517 595 37,100  Level FlightAware ADS-B
Tue 06:30:50 AM 34.8570 29.3600 120° Southeast 514 592 37,100  Level FlightAware ADS-B
Tue 06:31:36 AM 34.8180 29.4570 116° Southeast 514 592 37,100  Level FlightAware ADS-B
Tue 06:32:33 AM 34.7520 29.6140 117° Southeast 513 590 37,100  Level FlightAware ADS-B
Tue 06:33:11 AM 34.7060 29.7220 117° Southeast 513 590 37,100  Level FlightAware ADS-B
Tue 06:33:51 AM 34.6600 29.8210 119° Southeast 514 592 37,100  Level FlightAware ADS-B
Tue 06:34:33 AM 34.6180 29.9100 120° Southeast 514 592 37,100  Level FlightAware ADS-B
Tue 06:35:09 AM 34.5810 29.9860 121° Southeast 514 592 37,100  Level FlightAware ADS-B
Tue 06:36:46 AM 34.4560 30.2480 120° Southeast 37,100  Level FlightAware ADS-B
Tue 06:37:24 AM 34.4040 30.3580 120° Southeast 513 590 37,100  Level FlightAware ADS-B
Tue 06:37:54 AM 34.3700 30.4290 120° Southeast 513 590 37,100  Level FlightAware ADS-B
Tue 06:38:29 AM 34.3250 30.5220 120° Southeast 513 590 37,100  Level FlightAware ADS-B
Tue 06:39:05 AM 34.2830 30.6100 120° Southeast 513 590 37,100  Level FlightAware ADS-B
Tue 06:39:41 AM 34.2420 30.6950 120° Southeast 513 590 37,100  Level FlightAware ADS-B
Tue 06:40:17 AM 34.1980 30.7850 121° Southeast 514 592 37,100  Level FlightAware ADS-B
Tue 06:40:52 AM 34.1570 30.8700 120° Southeast 514 592 37,100  Level FlightAware ADS-B
Tue 06:41:42 AM 34.0980 30.9930 120° Southeast 514 592 37,100  Level FlightAware ADS-B
Tue 06:42:18 AM 34.0540 31.0830 121° Southeast 514 592 37,100  Level FlightAware ADS-B
Tue 06:42:48 AM 34.0190 31.1550 120° Southeast 514 592 37,100  Level FlightAware ADS-B
Tue 06:43:23 AM 33.9740 31.2450 121° Southeast 514 592 37,100  Level FlightAware ADS-B
Tue 06:44:03 AM 33.9290 31.3380 120° Southeast 515 593 37,100  Level FlightAware ADS-B
Tue 06:44:33 AM 33.8900 31.4170 121° Southeast 515 593 37,100  Level FlightAware ADS-B
Tue 06:45:08 AM 33.8470 31.5050 120° Southeast 514 592 37,100  Level FlightAware ADS-B
Tue 06:45:44 AM 33.8030 31.5940 121° Southeast 510 587 37,100  Level FlightAware ADS-B
Tue 06:46:22 AM 33.7600 31.6800 121° Southeast 511 588 37,100  Level FlightAware ADS-B
Tue 06:46:54 AM 33.7190 31.7620 121° Southeast 511 588 37,100  Level FlightAware ADS-B
Tue 06:47:30 AM 33.6750 31.8500 121° Southeast 511 588 37,100  Level FlightAware ADS-B
Tue 06:48:05 AM 33.6300 31.9410 121° Southeast 511 588 37,100  Level FlightAware ADS-B
Tue 06:48:40 AM 33.5870 32.0260 121° Southeast 511 588 37,100  Level FlightAware ADS-B
Tue 06:49:16 AM 33.5440 32.1110 121° Southeast 511 588 37,100  Level FlightAware ADS-B
Tue 06:49:52 AM 33.4960 32.2060 121° Southeast 516 594 37,100  Level FlightAware ADS-B
Tue 06:50:26 AM 33.4580 32.2810 121° Southeast 511 588 37,100  Level FlightAware ADS-B
Tue 06:50:58 AM 33.4150 32.3670 121° Southeast 516 594 37,100  Level FlightAware ADS-B
Tue 06:51:34 AM 33.3720 32.4510 121° Southeast 517 595 37,100  Level FlightAware ADS-B
Tue 06:52:10 AM 33.3300 32.5380 120° Southeast 518 596 37,100  Level FlightAware ADS-B
Tue 06:52:45 AM 33.2900 32.6220 120° Southeast 518 596 37,100  Level FlightAware ADS-B
Tue 06:53:21 AM 33.2510 32.7020 120° Southeast 519 597 37,100 -686 Level FlightAware ADS-B
Tue 06:53:55 AM 33.2050 32.7970 120° Southeast 518 596 36,300 -2,087 Descending FlightAware ADS-B
Tue 06:54:30 AM 33.1580 32.8910 121° Southeast 513 590 34,700 -2,328 Descending FlightAware ADS-B
Tue 06:55:02 AM 33.1210 32.9670 120° Southeast 502 578 33,700 -2,000 Descending FlightAware ADS-B
Tue 06:55:42 AM 33.0740 33.0580 122° Southeast 491 565 32,300 -2,630 Descending FlightAware ADS-B
Tue 06:56:15 AM 33.0360 33.1340 121° Southeast 497 572 30,500 -2,842 Descending FlightAware ADS-B
Tue 06:56:58 AM 32.9830 33.2370 122° Southeast 487 560 28,700 -2,416 Descending FlightAware ADS-B
Tue 06:57:32 AM 32.9450 33.3090 122° Southeast 476 548 27,400 -2,087 Descending FlightAware ADS-B
Tue 06:58:07 AM 32.9010 33.3820 126° Southeast 468 539 26,300 -1,775 Descending FlightAware ADS-B
Tue 06:58:43 AM 32.8540 33.4590 126° Southeast 458 527 25,300 -2,028 Descending FlightAware ADS-B
Tue 06:59:18 AM 32.8100 33.5310 126° Southeast 448 516 23,900 -2,451 Descending FlightAware ADS-B
Tue 06:59:54 AM 32.7670 33.6030 125° Southeast 438 504 22,400 -2,261 Descending FlightAware ADS-B
Tue 07:00:27 AM 32.7300 33.6650 125° Southeast 429 494 21,300 -2,087 Descending FlightAware ADS-B
Tue 07:01:03 AM 32.6900 33.7310 126° Southeast 421 484 20,000 -2,250 Descending FlightAware ADS-B
Tue 07:01:39 AM 32.6500 33.7990 125° Southeast 420 483 18,600 -2,382 Descending FlightAware ADS-B
Tue 07:02:11 AM 32.6120 33.8620 126° Southeast 414 476 17,300 -2,418 Descending FlightAware ADS-B
Tue 07:02:46 AM 32.5730 33.9270 125° Southeast 404 465 15,900 -2,219 Descending FlightAware ADS-B
Tue 07:03:24 AM 32.5340 33.9910 126° Southeast 394 453 14,600 -2,189 Descending FlightAware ADS-B
Tue 07:04:00 AM 32.4940 34.0580 125° Southeast 385 443 13,200 -2,294 Descending FlightAware ADS-B
Tue 07:04:32 AM 32.4610 34.1120 126° Southeast 378 435 12,000 -2,182 Descending FlightAware ADS-B
Tue 07:05:06 AM 32.4260 34.1700 126° Southeast 371 427 10,800 -1,371 Descending FlightAware ADS-B
Tue 07:05:42 AM 32.3920 34.2260 126° Southeast 341 392 10,400 -649 Descending FlightAware ADS-B
Tue 07:06:20 AM 32.3570 34.2800 127° Southeast 314 361 10,000 -737 Descending FlightAware ADS-B
Tue 07:06:39 AM 32.3410 34.3050 127° Southeast 304 350 9,700 -900 Descending FlightAware ADS-B
Tue 07:07:00 AM 32.3250 34.3320 125° Southeast 297 342 9,400 -857 Descending FlightAware ADS-B
Tue 07:07:21 AM 32.3110 34.3580 122° Southeast 291 335 9,100 -913 Descending FlightAware ADS-B
Tue 07:07:46 AM 32.2920 34.3940 122° Southeast 281 323 8,700 -1,050 Descending FlightAware ADS-B
Tue 07:08:01 AM 32.2820 34.4130 122° Southeast 281 323 8,400 -933 Descending FlightAware ADS-B
Tue 07:08:31 AM 32.2620 34.4510 122° Southeast 278 320 8,000 -750 Descending FlightAware ADS-B
Tue 07:08:41 AM 32.2540 34.4650 124° Southeast 277 319 7,900 -514 Descending FlightAware ADS-B
Tue 07:09:06 AM 32.2390 34.4910 124° Southeast 275 316 7,700 -235 Descending FlightAware ADS-B
Tue 07:09:32 AM 32.2230 34.5190 124° Southeast 275 316 7,700 -667 Level FlightAware ADS-B
Tue 07:09:51 AM 32.2390 34.4910 304° West 272 313 7,200 -536 Descending FlightAware ADS-B
Tue 07:10:28 AM 32.1840 34.5860 124° Southeast 272 313 7,200 -400 Level FlightAware ADS-B
Tue 07:10:51 AM 32.1640 34.6230 123° Southeast 275 316 6,800 -837 Descending FlightAware ADS-B
Tue 07:11:11 AM 32.1500 34.6490 122° Southeast 278 320 6,600 -261 Descending FlightAware ADS-B
Tue 07:11:37 AM 32.1350 34.6780 121° Southeast 278 320 6,600 -923 Level FlightAware ADS-B
Tue 07:12:49 AM 32.0830 34.7650 125° Southeast 5,000 -1,231 Descending FlightAware ADS-B
Tue 07:12:55 AM 32.0790 34.7690 140° Southeast 220 253 5,000 -324 Level FlightAware ADS-B
Tue 07:13:26 AM 32.0560 34.7950 136° Southeast 206 237 4,800 -444 Descending FlightAware ADS-B
Tue 07:13:49 AM 32.0740 34.7750 317° Northwest 215 247 4,600 -383 Descending FlightAware ADS-B
Tue 07:14:13 AM 32.0270 34.8290 136° Southeast 209 241 4,500 -286 Descending FlightAware ADS-B
Tue 07:14:31 AM 32.0150 34.8430 135° Southeast 194 223 4,400 -933 Descending FlightAware ADS-B
Tue 07:14:58 AM 31.9970 34.8640 135° Southeast 178 205 3,800 -667 Descending FlightAware ADS-B
Tue 07:15:25 AM 31.9840 34.8800 134° Southeast 178 205 3,800 -1,500 Level FlightAware ADS-B
Tue 07:15:26 AM 31.9910 34.8860 36° Northeast 178 205 3,100 -2,444 Descending FlightAware ADS-B
Tue 07:15:52 AM 31.9960 34.9110 77° East 186 214 2,700 -873 Descending FlightAware ADS-B
Tue 07:16:21 AM 32.0020 34.9390 76° East 169 194 2,300 -436 Descending FlightAware ADS-B
Tue 07:16:47 AM 32.0060 34.9590 77° East 169 194 2,300 -1,029 Level FlightAware ADS-B
Tue 07:16:56 AM 32.0210 34.9620 10° North 169 194 1,700 -1,765 Descending FlightAware ADS-B
Tue 07:17:21 AM 32.0380 34.9570 346° North 158 182 1,300 -800 Descending FlightAware ADS-B
Tue 07:17:26 AM 32.0400 34.9540 308° West 157 181 1,300 -800 Level FlightAware ADS-B
Tue 07:17:36 AM 32.0440 34.9470 304° West 160 184 1,100 -600 Descending FlightAware ADS-B
Tue 07:17:46 AM 32.0450 34.9400 280° West 162 186 1,100 -140 Level FlightAware ADS-B
Tue 07:18:19 AM 32.0460 34.9150 273° West 161 185 1,000 -182 Descending FlightAware ADS-B

Login

Don't have an account? Register now (free) for customized features, flight alerts, and more!